Time;durP1;ratioP1;P1;durP2;ratioP2;P2;SDS_P1;SDS_P2;PMS_P1;PMS_P2;Temp;Humidity;BMP_temperature;BMP_pressure;BME280_temperature;BME280_humidity;BME280_pressure;Samples;Min_cycle;Max_cycle;Signal;HPM_P1;HPM_P2
2023/07/03 00:00:00;;;;;;;15.60;13.93;;;;;;;20.24;60.04;94621.34;5052688;28;20101;-81
2023/07/03 00:02:25;;;;;;;15.57;13.93;;;;;;;20.23;60.12;94631.75;5051805;28;20563;-82
2023/07/03 00:04:51;;;;;;;16.90;14.75;;;;;;;20.20;60.25;94626.44;5052252;28;20036;-82
2023/07/03 00:07:16;;;;;;;16.73;14.88;;;;;;;20.21;60.35;94619.59;5070031;28;20024;-80
2023/07/03 00:09:42;;;;;;;17.33;13.98;;;;;;;20.20;60.04;94627.19;5070366;28;20486;-81
2023/07/03 00:12:09;;;;;;;15.73;14.05;;;;;;;20.19;60.42;94625.69;5070933;28;20063;-82
2023/07/03 00:14:35;;;;;;;16.15;14.45;;;;;;;20.20;60.42;94629.22;5051771;28;20052;-81
2023/07/03 00:17:00;;;;;;;16.42;14.73;;;;;;;20.18;60.53;94629.72;5070669;28;20048;-81
2023/07/03 00:19:30;;;;;;;16.25;14.55;;;;;;;20.19;60.22;94631.25;5069289;28;20446;-82
2023/07/03 00:22:00;;;;;;;16.77;15.02;;;;;;;20.19;60.44;94633.28;5052231;28;20028;-82
2023/07/03 00:24:27;;;;;;;16.70;14.63;;;;;;;20.16;60.33;94635.81;5069559;28;20066;-83
2023/07/03 00:26:52;;;;;;;17.17;15.38;;;;;;;20.20;60.35;94630.00;5051813;28;20495;-81
2023/07/03 00:29:17;;;;;;;17.10;14.65;;;;;;;20.20;60.12;94629.22;5069801;28;20023;-81
2023/07/03 00:31:43;;;;;;;16.10;14.40;;;;;;;20.19;60.63;94633.28;5069788;28;20027;-81
2023/07/03 00:34:08;;;;;;;15.98;14.25;;;;;;;20.19;60.28;94633.28;5052350;28;20066;-81
2023/07/03 00:36:33;;;;;;;17.00;15.25;;;;;;;20.17;60.57;94636.56;5069076;28;20139;-82
2023/07/03 00:38:59;;;;;;;17.35;15.45;;;;;;;20.17;60.46;94636.56;5070368;28;20030;-82
2023/07/03 00:41:25;;;;;;;16.55;14.77;;;;;;;20.14;60.36;94645.97;5051299;28;20017;-82
2023/07/03 00:43:51;;;;;;;17.10;15.40;;;;;;;20.10;60.34;94634.28;5069746;28;20032;-81
2023/07/03 00:46:16;;;;;;;16.70;15.00;;;;;;;20.08;60.66;94648.75;5070040;28;20414;-80
2023/07/03 00:48:42;;;;;;;18.48;15.38;;;;;;;20.08;60.61;94645.97;5051682;28;20059;-81
2023/07/03 00:51:08;;;;;;;17.50;15.57;;;;;;;20.05;60.81;94646.22;5051080;28;20025;-81
2023/07/03 00:53:34;;;;;;;16.55;14.38;;;;;;;19.99;60.98;94646.19;5069222;28;20029;-82
2023/07/03 00:55:59;;;;;;;16.90;15.10;;;;;;;19.98;60.80;94646.72;5052059;28;20537;-82
2023/07/03 00:58:26;;;;;;;17.85;15.52;;;;;;;19.97;60.77;94643.16;5051480;28;20024;-82
2023/07/03 01:01:00;;;;;;;18.20;16.23;;;;;;;19.92;61.08;94635.56;5051968;28;20074;-82
2023/07/03 01:03:54;;;;;;;17.83;15.80;;;;;;;19.91;61.21;94645.19;5051428;28;20020;-82
2023/07/03 01:06:23;;;;;;;18.95;14.98;;;;;;;19.90;61.33;94646.47;5050432;28;20562;-82
2023/07/03 01:08:53;;;;;;;16.60;14.85;;;;;;;19.87;61.28;94639.84;5051912;28;20024;-82
2023/07/03 01:11:19;;;;;;;17.63;15.75;;;;;;;19.88;61.25;94641.38;5050725;28;20338;-81
2023/07/03 01:13:46;;;;;;;16.88;15.18;;;;;;;19.87;61.39;94639.84;5051378;28;20016;-82
2023/07/03 01:16:12;;;;;;;19.58;15.52;;;;;;;19.86;61.44;94640.38;5051394;28;20047;-81
2023/07/03 01:18:37;;;;;;;17.58;15.70;;;;;;;19.85;61.50;94639.59;5051242;28;20025;-81
2023/07/03 01:21:19;;;;;;;17.95;15.55;;;;;;;19.81;61.30;94638.31;5051159;28;20024;-82
2023/07/03 01:23:49;;;;;;;17.42;15.63;;;;;;;19.81;61.61;94649.47;5050573;28;20245;-81
2023/07/03 01:26:15;;;;;;;18.33;16.38;;;;;;;19.77;61.65;94654.53;5051050;28;20459;-82
2023/07/03 01:28:43;;;;;;;18.25;16.35;;;;;;;19.76;61.61;94641.84;5050522;28;20021;-82
2023/07/03 01:31:08;;;;;;;18.92;16.52;;;;;;;19.62;61.75;94633.22;5069326;28;20109;-81
2023/07/03 01:33:34;;;;;;;18.90;16.58;;;;;;;19.72;62.25;94638.56;5050748;28;20059;-82
2023/07/03 01:36:01;;;;;;;17.40;15.30;;;;;;;19.72;62.36;94646.91;5069072;28;20035;-81
2023/07/03 01:38:27;;;;;;;18.10;15.82;;;;;;;19.71;62.53;94645.41;5050851;28;20020;-80
2023/07/03 01:40:53;;;;;;;18.35;16.02;;;;;;;19.71;62.52;94646.16;5051127;28;20525;-81
2023/07/03 01:43:20;;;;;;;18.65;16.65;;;;;;;19.73;62.17;94640.09;5051196;28;20025;-81
2023/07/03 01:45:46;;;;;;;18.67;16.25;;;;;;;19.66;62.86;94643.34;5068102;28;20033;-81
2023/07/03 01:48:12;;;;;;;18.52;16.40;;;;;;;19.65;62.68;94642.59;5069070;28;20046;-81
2023/07/03 01:50:39;;;;;;;18.92;17.02;;;;;;;19.67;62.75;94640.09;5033798;28;20028;-81
2023/07/03 01:53:12;;;;;;;19.98;16.95;;;;;;;19.68;63.09;94649.97;5051025;28;20097;-82
2023/07/03 01:55:50;;;;;;;19.73;17.63;;;;;;;19.58;63.31;94654.22;5068724;28;20130;-81
2023/07/03 01:58:25;;;;;;;21.65;17.30;;;;;;;19.50;63.45;94648.38;5049631;28;20036;-82
2023/07/03 02:00:58;;;;;;;18.98;16.90;;;;;;;19.49;63.54;94648.84;5068269;28;20091;-82
2023/07/03 02:03:33;;;;;;;19.23;17.05;;;;;;;19.52;63.01;94654.19;5049801;28;20027;-82
2023/07/03 02:06:08;;;;;;;18.27;15.73;;;;;;;19.52;63.31;94653.44;5068172;28;20119;-81
2023/07/03 02:08:33;;;;;;;20.40;17.48;;;;;;;19.46;63.82;94649.88;5049898;28;20056;-81
2023/07/03 02:10:59;;;;;;;19.40;17.13;;;;;;;19.54;63.70;94656.47;5049933;28;20056;-81
2023/07/03 02:13:24;;;;;;;20.02;16.23;;;;;;;19.47;63.71;94643.03;5068138;28;20012;-81
2023/07/03 02:15:50;;;;;;;18.15;16.13;;;;;;;19.51;63.76;94655.47;5067758;28;20463;-81
2023/07/03 02:18:17;;;;;;;18.55;16.65;;;;;;;19.53;63.55;94658.50;5069027;28;20037;-81
2023/07/03 02:20:44;;;;;;;20.48;17.02;;;;;;;19.55;63.38;94660.78;5067528;28;20095;-82
2023/07/03 02:23:10;;;;;;;18.90;16.38;;;;;;;19.54;63.60;94671.16;5050453;28;20044;-80
2023/07/03 02:25:36;;;;;;;18.98;16.23;;;;;;;19.57;63.77;94672.97;5049515;28;20067;-81
2023/07/03 02:28:01;;;;;;;19.27;16.90;;;;;;;19.59;63.80;94669.69;5049782;28;20074;-82
2023/07/03 02:30:26;;;;;;;18.17;16.27;;;;;;;19.60;63.72;94671.97;5067519;28;20116;-82
2023/07/03 02:32:52;;;;;;;20.35;16.88;;;;;;;19.63;63.88;94679.34;5067850;28;20025;-81
2023/07/03 02:35:18;;;;;;;19.23;16.30;;;;;;;19.63;63.55;94673.78;5067874;28;20053;-81
2023/07/03 02:37:43;;;;;;;17.80;15.90;;;;;;;19.65;63.39;94673.25;5067499;28;20021;-81
2023/07/03 02:40:13;;;;;;;18.40;16.40;;;;;;;19.68;63.67;94679.88;5067954;28;20528;-80
2023/07/03 02:42:38;;;;;;;17.50;15.65;;;;;;;19.65;63.43;94676.06;5049648;28;20154;-82
2023/07/03 02:45:05;;;;;;;17.95;16.05;;;;;;;19.71;63.36;94676.06;5049730;28;20108;-82
2023/07/03 02:47:37;;;;;;;18.45;16.20;;;;;;;19.66;63.67;94677.56;5049291;28;20025;-80
2023/07/03 02:50:07;;;;;;;18.90;16.25;;;;;;;19.69;63.74;94673.78;5049781;28;20115;-80
2023/07/03 02:52:33;;;;;;;19.63;16.92;;;;;;;19.68;63.59;94679.88;5067744;28;20028;-81
2023/07/03 02:54:58;;;;;;;24.23;17.52;;;;;;;19.62;63.99;94688.22;5066735;28;20023;-81
2023/07/03 02:57:24;;;;;;;17.88;15.98;;;;;;;19.61;63.85;94675.53;5067683;28;20100;-81
2023/07/03 02:59:49;;;;;;;18.23;16.33;;;;;;;19.63;63.82;94690.50;5066815;28;20509;-81
2023/07/03 03:02:15;;;;;;;20.75;16.45;;;;;;;19.60;64.23;94691.50;5049754;28;20056;-81
2023/07/03 03:04:41;;;;;;;20.33;16.88;;;;;;;19.61;64.22;94683.88;5067456;28;20110;-81
2023/07/03 03:07:06;;;;;;;18.88;16.27;;;;;;;19.66;64.22;94687.97;5067116;28;20613;-90
2023/07/03 03:09:32;;;;;;;20.98;17.23;;;;;;;19.55;64.63;94692.22;5049501;28;20024;-86
2023/07/03 03:11:57;;;;;;;21.33;16.85;;;;;;;19.47;64.66;94699.53;5049907;28;20398;-88
2023/07/03 03:14:22;;;;;;;18.13;16.23;;;;;;;19.46;65.03;94686.88;5066509;28;20036;-88
2023/07/03 03:16:48;;;;;;;19.85;17.83;;;;;;;19.51;64.91;94699.31;5066961;28;20411;-86
2023/07/03 03:19:13;;;;;;;22.17;17.20;;;;;;;19.54;64.66;94701.84;5049463;28;20082;-87
2023/07/03 03:21:39;;;;;;;19.45;17.40;;;;;;;19.54;64.67;94706.66;5048840;28;20020;-85
2023/07/03 03:24:04;;;;;;;17.85;15.95;;;;;;;19.56;64.75;94704.91;5048775;28;20029;-87
2023/07/03 03:26:30;;;;;;;20.30;17.60;;;;;;;19.61;64.88;94695.03;5048813;28;20032;-88
2023/07/03 03:28:57;;;;;;;19.45;17.30;;;;;;;19.63;64.68;94695.31;5066380;28;20035;-88
2023/07/03 03:31:23;;;;;;;18.65;16.65;;;;;;;19.63;64.53;94693.28;5048357;28;20078;-86
2023/07/03 03:33:48;;;;;;;18.80;16.23;;;;;;;19.65;64.86;94692.78;5048774;28;20441;-88
2023/07/03 03:36:13;;;;;;;18.55;16.55;;;;;;;19.68;64.72;94707.75;5067523;28;20540;-87
2023/07/03 03:38:39;;;;;;;21.42;16.95;;;;;;;19.73;64.67;94710.56;5049260;28;20099;-88
2023/07/03 03:41:05;;;;;;;19.27;15.60;;;;;;;19.76;64.67;94714.38;5050682;28;20029;-85
2023/07/03 03:43:30;;;;;;;19.00;16.77;;;;;;;19.87;64.65;94709.56;5081452;28;20081;-87
2023/07/03 03:45:57;;;;;;;18.35;16.45;;;;;;;19.85;64.88;94709.34;5071568;28;20036;-87
2023/07/03 03:48:23;;;;;;;19.45;16.10;;;;;;;19.80;64.72;94706.53;5050932;28;20063;-86
2023/07/03 03:50:49;;;;;;;19.70;17.10;;;;;;;19.79;65.03;94710.59;5067762;28;20127;-86
2023/07/03 03:53:15;;;;;;;19.45;16.65;;;;;;;19.83;65.06;94717.41;5050004;28;20025;-89
2023/07/03 03:55:40;;;;;;;20.02;17.52;;;;;;;19.83;65.24;94714.63;5069137;28;20058;-87
2023/07/03 03:58:05;;;;;;;18.83;16.83;;;;;;;19.84;64.92;94718.19;5067594;28;20069;-87
2023/07/03 04:00:31;;;;;;;19.13;16.95;;;;;;;19.84;65.09;94729.34;5066697;28;20076;-87
2023/07/03 04:02:57;;;;;;;18.30;16.33;;;;;;;19.89;65.45;94720.97;5066885;28;20033;-88
2023/07/03 04:05:22;;;;;;;19.05;17.02;;;;;;;19.86;65.15;94724.78;5049017;28;20087;-87
2023/07/03 04:07:47;;;;;;;21.00;17.95;;;;;;;19.83;65.47;94723.00;5070660;28;20029;-87
2023/07/03 04:10:13;;;;;;;21.70;17.48;;;;;;;19.94;65.37;94724.31;5068446;28;20037;-87
2023/07/03 04:12:38;;;;;;;21.15;17.80;;;;;;;20.00;65.38;94737.00;5067022;28;20074;-90
2023/07/03 04:15:05;;;;;;;20.25;17.15;;;;;;;19.95;65.27;94729.38;5067511;28;20146;-89
2023/07/03 04:17:30;;;;;;;21.23;18.33;;;;;;;19.95;65.46;94734.94;5066808;28;20054;-90
2023/07/03 04:19:56;;;;;;;20.02;17.25;;;;;;;20.01;65.49;94735.72;5049464;28;20130;-91
2023/07/03 04:22:21;;;;;;;20.17;17.45;;;;;;;20.04;65.58;94739.56;5048840;28;20181;-90
2023/07/03 04:24:47;;;;;;;20.20;17.42;;;;;;;20.09;65.25;94745.16;5068049;28;20021;-91
2023/07/03 04:27:14;;;;;;;19.98;17.50;;;;;;;20.11;65.35;94745.38;5070489;28;20116;-89
2023/07/03 04:29:39;;;;;;;18.83;16.83;;;;;;;20.12;65.08;94744.13;5054503;28;20024;-91
2023/07/03 04:32:05;;;;;;;19.77;17.42;;;;;;;20.12;65.12;94746.91;5072540;28;20457;-90
2023/07/03 04:34:30;;;;;;;19.50;16.92;;;;;;;20.20;64.99;94746.44;5071482;28;20052;-90
2023/07/03 04:36:55;;;;;;;21.48;18.15;;;;;;;20.30;65.26;94748.50;5071537;28;20383;-90
2023/07/03 04:39:21;;;;;;;18.88;16.50;;;;;;;20.28;65.08;94744.66;5052394;28;20020;-90
2023/07/03 04:41:46;;;;;;;24.38;16.85;;;;;;;20.28;64.98;94747.44;5070424;28;20051;-85
2023/07/03 04:44:12;;;;;;;23.35;17.55;;;;;;;20.30;65.01;94756.06;5069736;28;20361;-86
2023/07/03 04:46:39;;;;;;;19.50;16.80;;;;;;;20.34;65.06;94743.41;5035092;28;20123;-86
2023/07/03 04:49:05;;;;;;;19.02;17.02;;;;;;;20.37;64.97;94750.78;5069928;28;20031;-86
2023/07/03 04:51:31;;;;;;;18.77;16.27;;;;;;;20.45;64.96;94751.03;5069302;28;20111;-85
2023/07/03 04:54:01;;;;;;;18.48;16.38;;;;;;;20.47;64.63;94754.09;5052296;28;20637;-84
2023/07/03 04:56:27;;;;;;;18.23;16.33;;;;;;;20.46;64.65;94760.19;5069313;28;20075;-85
2023/07/03 04:58:53;;;;;;;19.90;16.80;;;;;;;20.51;64.66;94765.78;5051895;28;20033;-84
2023/07/03 05:01:19;;;;;;;18.55;16.55;;;;;;;20.55;64.32;94765.53;5069768;28;20157;-89
2023/07/03 05:03:45;;;;;;;20.30;16.27;;;;;;;20.62;64.45;94771.38;5051642;28;20095;-85
2023/07/03 05:06:10;;;;;;;19.52;17.40;;;;;;;20.67;64.24;94764.28;5069362;28;20107;-85
2023/07/03 05:08:36;;;;;;;18.38;16.30;;;;;;;20.74;64.05;94760.22;5069205;28;20025;-86
2023/07/03 05:11:01;;;;;;;19.20;16.85;;;;;;;20.74;63.78;94772.13;5069496;28;20420;-85
2023/07/03 05:13:27;;;;;;;18.45;16.50;;;;;;;20.81;63.87;94768.06;5068814;28;20031;-85
2023/07/03 05:15:54;;;;;;;18.95;16.40;;;;;;;20.87;63.32;94775.19;5051323;28;20334;-84
2023/07/03 05:18:19;;;;;;;17.77;15.85;;;;;;;20.93;63.73;94770.38;5068305;28;20025;-85
2023/07/03 05:20:45;;;;;;;18.25;16.23;;;;;;;20.93;63.29;94773.16;5053135;28;20403;-83
2023/07/03 05:23:13;;;;;;;17.05;15.30;;;;;;;21.01;63.22;94773.41;5050909;28;20503;-84
2023/07/03 05:25:39;;;;;;;23.58;16.17;;;;;;;21.03;63.21;94776.44;5068660;28;20037;-85
2023/07/03 05:28:04;;;;;;;18.85;15.52;;;;;;;21.07;63.23;94765.00;5067731;28;20020;-85
2023/07/03 05:30:30;;;;;;;17.98;16.05;;;;;;;21.09;62.62;94779.22;5068849;28;20017;-84
2023/07/03 05:32:55;;;;;;;20.02;16.52;;;;;;;21.12;63.23;94778.22;5071667;28;20033;-84
2023/07/03 05:35:21;;;;;;;17.80;15.90;;;;;;;21.14;62.92;94770.84;5050489;28;20119;-86
2023/07/03 05:37:46;;;;;;;19.13;16.05;;;;;;;21.19;62.45;94772.88;5068725;28;20025;-84
2023/07/03 05:40:14;;;;;;;17.67;15.75;;;;;;;21.17;62.22;94775.41;5068857;28;20112;-85
2023/07/03 05:42:40;;;;;;;18.05;14.88;;;;;;;21.17;62.19;94785.84;5051094;28;20028;-84
2023/07/03 05:45:06;;;;;;;16.65;14.68;;;;;;;21.19;62.32;94789.63;5068673;28;20039;-85
2023/07/03 05:47:32;;;;;;;16.67;14.90;;;;;;;21.16;62.59;94784.28;5050894;28;20032;-90
2023/07/03 05:50:00;;;;;;;18.75;15.65;;;;;;;21.13;62.58;94791.69;5070699;28;20081;-87
2023/07/03 05:52:25;;;;;;;19.38;16.27;;;;;;;21.12;62.63;94790.16;5070439;28;20082;-86
2023/07/03 05:54:51;;;;;;;21.00;16.60;;;;;;;21.16;62.45;94792.69;5054070;28;20074;-88
2023/07/03 05:57:16;;;;;;;17.02;15.23;;;;;;;21.23;62.16;94786.59;5068338;28;20080;-84
2023/07/03 05:59:42;;;;;;;17.60;15.70;;;;;;;21.26;61.97;94790.38;5046513;28;20057;-83
2023/07/03 06:02:12;;;;;;;17.38;15.45;;;;;;;21.25;61.94;94789.63;5048449;28;20025;-81
2023/07/03 06:04:38;;;;;;;17.10;15.25;;;;;;;21.25;62.21;94800.81;5048054;28;20029;-85
2023/07/03 06:07:04;;;;;;;17.25;15.40;;;;;;;21.29;61.86;94798.56;5046998;28;20083;-81
2023/07/03 06:09:29;;;;;;;19.40;16.52;;;;;;;21.31;61.99;94792.44;5048138;28;20511;-89
2023/07/03 06:11:58;;;;;;;18.33;16.15;;;;;;;21.42;61.98;94790.38;5049379;28;20107;-81
2023/07/03 06:14:24;;;;;;;17.30;15.60;;;;;;;21.52;61.56;94793.69;5048069;28;20044;-85
2023/07/03 06:16:50;;;;;;;16.42;14.65;;;;;;;21.55;61.38;94798.22;5047367;28;20094;-83
2023/07/03 06:19:17;;;;;;;19.50;15.40;;;;;;;21.62;61.07;94796.94;5048025;28;20528;-83
2023/07/03 06:21:43;;;;;;;16.77;15.07;;;;;;;21.68;61.11;94795.66;5048001;28;20017;-85
2023/07/03 06:24:10;;;;;;;18.58;15.25;;;;;;;21.64;61.15;94803.56;5048970;28;20086;-85
2023/07/03 06:26:38;;;;;;;16.60;14.60;;;;;;;21.70;61.13;94797.94;5048594;28;20029;-88
2023/07/03 06:29:05;;;;;;;16.30;14.40;;;;;;;21.81;60.52;94799.94;5048815;28;20079;-90
2023/07/03 06:31:30;;;;;;;16.65;14.82;;;;;;;21.92;59.93;94805.50;5050377;28;20040;-90
2023/07/03 06:33:55;;;;;;;16.27;14.10;;;;;;;21.99;59.95;94808.50;5049017;28;20025;-91
2023/07/03 06:36:21;;;;;;;15.98;13.90;;;;;;;22.15;60.27;94797.78;5047702;28;20025;-91
2023/07/03 06:38:57;;;;;;;15.63;14.02;;;;;;;22.22;59.82;94805.66;5031405;28;20033;-92
2023/07/03 06:41:26;;;;;;;16.65;14.07;;;;;;;22.24;59.33;94805.88;5049611;28;20112;-92
2023/07/03 06:43:52;;;;;;;16.88;15.10;;;;;;;22.28;59.17;94800.78;5048190;28;20111;-92
2023/07/03 06:46:18;;;;;;;16.60;14.75;;;;;;;22.30;58.85;94806.59;5046875;28;20508;-90
2023/07/03 06:48:43;;;;;;;16.20;14.50;;;;;;;22.35;59.04;94808.63;5045155;28;20095;-93
2023/07/03 06:51:11;;;;;;;14.88;13.38;;;;;;;22.36;59.32;94801.72;5048249;28;20021;-92
2023/07/03 06:53:37;;;;;;;17.98;14.10;;;;;;;22.38;59.06;94804.78;5046570;28;20471;-92
2023/07/03 06:56:03;;;;;;;14.93;13.13;;;;;;;22.45;58.94;94804.25;5048643;28;20098;-92
2023/07/03 06:58:29;;;;;;;14.52;13.02;;;;;;;22.46;59.11;94805.00;5046756;28;20103;-90
2023/07/03 07:00:56;;;;;;;13.65;12.35;;;;;;;22.51;58.43;94804.97;5066846;28;20503;-94
2023/07/03 07:03:21;;;;;;;14.10;12.35;;;;;;;22.57;58.54;94806.97;5056879;28;20025;-93
2023/07/03 07:05:47;;;;;;;14.27;12.77;;;;;;;22.61;58.36;94799.81;5052117;28;20035;-90
2023/07/03 07:08:18;;;;;;;13.05;11.73;;;;;;;22.65;58.05;94800.31;5054359;28;20031;-91
2023/07/03 07:10:44;;;;;;;13.43;11.75;;;;;;;22.75;58.28;94798.69;5070237;28;20032;-90
2023/07/03 07:13:10;;;;;;;13.50;12.20;;;;;;;22.83;57.74;94798.13;5078251;28;20459;-92
2023/07/03 07:15:40;;;;;;;13.60;11.90;;;;;;;22.88;57.46;94792.53;5053514;28;20025;-91
2023/07/03 07:18:07;;;;;;;14.75;13.23;;;;;;;22.99;57.61;94789.59;5051359;28;20046;-88
2023/07/03 07:20:37;;;;;;;13.57;12.25;;;;;;;23.05;57.31;94798.75;5049362;28;20046;-88
2023/07/03 07:23:02;;;;;;;14.32;11.68;;;;;;;23.14;56.46;94789.22;5049698;28;20025;-90
2023/07/03 07:25:27;;;;;;;12.82;11.52;;;;;;;23.18;56.68;94794.56;5067737;28;20402;-90
2023/07/03 07:27:53;;;;;;;12.27;11.00;;;;;;;23.24;56.37;94800.88;5071515;28;20108;-89
2023/07/03 07:30:18;;;;;;;11.18;10.07;;;;;;;23.28;55.37;94804.91;5070503;28;20112;-91
2023/07/03 07:32:46;;;;;;;13.32;10.43;;;;;;;23.28;55.16;94804.91;5067795;28;20032;-86
2023/07/03 07:35:11;;;;;;;13.55;11.35;;;;;;;23.36;55.08;94802.28;5049907;28;20090;-86
2023/07/03 07:37:37;;;;;;;12.95;11.50;;;;;;;23.45;54.61;94801.16;5049919;28;20466;-83
2023/07/03 07:40:03;;;;;;;13.05;11.20;;;;;;;23.49;54.88;94798.84;5068145;28;20059;-87
2023/07/03 07:42:31;;;;;;;14.43;11.50;;;;;;;23.63;54.86;94805.34;5067256;28;20178;-84
2023/07/03 07:44:56;;;;;;;14.73;12.02;;;;;;;23.73;54.49;94795.28;5067303;28;20071;-88
2023/07/03 07:47:22;;;;;;;15.73;13.45;;;;;;;23.83;54.67;94808.44;5067026;28;20082;-85
2023/07/03 07:49:47;;;;;;;13.68;11.63;;;;;;;23.97;54.36;94816.97;5065448;28;20026;-84
2023/07/03 07:52:13;;;;;;;14.10;12.63;;;;;;;24.02;52.73;94814.09;5067483;28;20174;-85
2023/07/03 07:54:39;;;;;;;16.92;13.32;;;;;;;23.97;52.69;94806.50;5049819;28;20032;-85
2023/07/03 07:57:04;;;;;;;13.35;10.52;;;;;;;24.04;52.96;94811.53;5051647;28;20043;-85
2023/07/03 07:59:33;;;;;;;15.40;12.38;;;;;;;24.19;53.17;94813.13;5048782;28;20396;-85
2023/07/03 08:01:58;;;;;;;13.32;11.68;;;;;;;24.29;52.95;94814.28;5072036;28;20035;-87
2023/07/03 08:04:24;;;;;;;12.45;10.40;;;;;;;24.42;52.91;94820.00;5071099;28;20021;-86
2023/07/03 08:06:49;;;;;;;12.73;11.38;;;;;;;24.60;52.51;94819.25;5071532;28;20093;-86
2023/07/03 08:09:15;;;;;;;14.57;10.73;;;;;;;24.73;51.85;94815.75;5071216;28;20029;-84
2023/07/03 08:11:43;;;;;;;11.45;10.13;;;;;;;24.79;52.01;94824.09;5071089;28;20038;-86
2023/07/03 08:14:09;;;;;;;12.95;9.98;;;;;;;24.86;52.19;94818.59;5070843;28;20089;-85
2023/07/03 08:16:34;;;;;;;12.55;10.35;;;;;;;24.86;50.96;94826.28;5071934;28;20036;-85
2023/07/03 08:18:59;;;;;;;11.75;9.63;;;;;;;24.90;51.06;94823.91;5071458;28;20024;-85
2023/07/03 08:21:25;;;;;;;13.02;9.52;;;;;;;24.92;50.17;94826.94;5053377;28;20052;-85
2023/07/03 08:23:50;;;;;;;10.48;9.38;;;;;;;24.95;50.70;94822.31;5070973;28;20078;-85
2023/07/03 08:26:21;;;;;;;11.10;9.60;;;;;;;25.01;50.58;94828.63;5070942;28;20047;-84
2023/07/03 08:28:47;;;;;;;10.38;8.85;;;;;;;25.08;49.16;94822.38;5070120;28;20379;-85
2023/07/03 08:31:12;;;;;;;11.75;9.32;;;;;;;25.16;49.53;94821.22;5052440;28;20024;-86
2023/07/03 08:33:37;;;;;;;10.45;8.43;;;;;;;25.37;48.96;94832.63;5069870;28;20158;-85
2023/07/03 08:36:04;;;;;;;12.90;9.55;;;;;;;25.50;48.58;94823.47;5069944;28;20032;-86
2023/07/03 08:38:29;;;;;;;13.60;9.68;;;;;;;25.63;48.88;94826.31;5069467;28;20118;-86
2023/07/03 08:40:59;;;;;;;10.85;9.65;;;;;;;25.79;48.52;94832.19;5070127;28;20074;-85
2023/07/03 08:43:47;;;;;;;10.80;9.10;;;;;;;25.84;47.47;94828.50;5069558;28;20399;-86
2023/07/03 08:46:22;;;;;;;10.45;9.38;;;;;;;25.86;47.45;94826.69;5051923;28;20209;-87
2023/07/03 08:48:49;;;;;;;11.88;9.65;;;;;;;25.93;47.37;94828.84;5051499;28;20067;-84
2023/07/03 08:51:18;;;;;;;10.73;9.55;;;;;;;25.92;47.15;94832.19;5055372;28;20128;-85
2023/07/03 08:53:45;;;;;;;10.48;9.07;;;;;;;25.98;47.24;94820.81;5055051;28;20029;-85
2023/07/03 08:56:14;;;;;;;11.60;8.10;;;;;;;26.07;46.45;94823.94;5051984;28;20436;-85
2023/07/03 08:58:40;;;;;;;9.90;7.38;;;;;;;26.16;46.41;94826.34;5070245;28;20028;-85
2023/07/03 09:01:15;;;;;;;13.73;10.20;;;;;;;26.30;45.79;94823.50;5069983;28;20106;-86
2023/07/03 09:03:57;;;;;;;17.85;12.52;;;;;;;26.41;45.44;94826.13;5052075;28;20050;-86
2023/07/03 09:06:31;;;;;;;10.57;8.68;;;;;;;26.50;45.62;94820.03;5037969;28;20033;-85
2023/07/03 09:09:33;;;;;;;12.73;8.48;;;;;;;26.68;45.69;94815.53;5077431;28;20043;-85
2023/07/03 09:12:04;;;;;;;10.63;7.97;;;;;;;26.90;45.21;94825.56;5053695;28;20494;-86
2023/07/03 09:14:34;;;;;;;10.10;7.80;;;;;;;27.04;44.90;94824.19;5058280;28;20055;-87
2023/07/03 09:17:00;;;;;;;9.40;7.53;;;;;;;27.01;44.90;94825.25;5055764;28;20055;-86
2023/07/03 09:19:26;;;;;;;10.63;8.85;;;;;;;27.03;44.16;94827.56;5072742;28;20036;-85
2023/07/03 09:21:57;;;;;;;11.50;8.55;;;;;;;26.97;43.75;94831.25;5070428;28;20027;-86
2023/07/03 09:24:28;;;;;;;8.82;7.75;;;;;;;27.00;43.87;94827.34;5036833;28;20128;-86
2023/07/03 09:27:00;;;;;;;9.80;7.22;;;;;;;27.13;43.87;94831.47;5052417;28;20094;-86
2023/07/03 09:29:26;;;;;;;8.23;7.35;;;;;;;27.26;43.41;94826.50;5071772;28;20032;-86
2023/07/03 09:31:52;;;;;;;8.82;7.82;;;;;;;27.32;43.14;94820.72;5038497;28;20093;-86
2023/07/03 09:34:19;;;;;;;9.35;7.43;;;;;;;27.49;43.83;94823.13;5073383;28;20024;-85
2023/07/03 09:36:44;;;;;;;8.73;6.80;;;;;;;27.61;42.83;94821.50;5071633;28;20024;-87
2023/07/03 09:39:18;;;;;;;7.68;6.88;;;;;;;27.72;42.38;94826.13;5071707;28;20036;-86
2023/07/03 09:41:43;;;;;;;9.63;7.10;;;;;;;27.84;41.97;94821.72;5053478;28;20093;-87
2023/07/03 09:44:14;;;;;;;10.15;8.02;;;;;;;27.91;42.23;94828.72;5071211;28;20052;-86
2023/07/03 09:46:40;;;;;;;10.68;7.72;;;;;;;28.05;41.22;94818.84;5071890;28;20029;-85
2023/07/03 09:49:09;;;;;;;9.20;6.90;;;;;;;28.21;41.34;94816.81;5054043;28;20028;-83
2023/07/03 09:51:36;;;;;;;8.85;6.80;;;;;;;28.38;40.85;94824.84;5053074;28;20036;-85
2023/07/03 09:54:08;;;;;;;7.20;6.50;;;;;;;28.48;40.52;94823.03;5052558;28;20506;-86
2023/07/03 09:56:35;;;;;;;7.32;6.63;;;;;;;28.60;40.57;94827.03;5051476;28;20149;-85
2023/07/03 09:59:03;;;;;;;9.38;6.78;;;;;;;28.70;39.87;94808.22;5068302;28;20025;-87
2023/07/03 10:01:31;;;;;;;8.55;6.80;;;;;;;28.78;39.53;94819.53;5068011;28;20064;-86
2023/07/03 10:04:11;;;;;;;7.50;6.80;;;;;;;28.77;39.64;94809.56;5068395;28;20032;-86
2023/07/03 10:06:38;;;;;;;8.65;6.95;;;;;;;28.92;39.64;94803.19;5068110;28;20379;-86
2023/07/03 10:09:06;;;;;;;8.25;6.75;;;;;;;29.04;39.78;94807.94;5072701;28;20025;-85
2023/07/03 10:11:43;;;;;;;10.20;6.40;;;;;;;29.21;39.46;94810.25;5073338;28;20024;-86
2023/07/03 10:14:14;;;;;;;8.70;6.13;;;;;;;29.26;39.26;94808.56;5068650;28;20032;-86
2023/07/03 10:16:40;;;;;;;7.07;6.32;;;;;;;29.33;38.23;94811.38;5050461;28;20078;-86
2023/07/03 10:19:07;;;;;;;9.20;6.95;;;;;;;29.50;38.06;94807.25;5050447;28;20028;-86
2023/07/03 10:21:33;;;;;;;8.90;6.32;;;;;;;29.59;36.78;94807.47;5050555;28;20046;-85
2023/07/03 10:24:00;;;;;;;9.65;6.07;;;;;;;29.66;36.59;94810.84;5049872;28;20441;-87
2023/07/03 10:26:30;;;;;;;9.50;6.82;;;;;;;29.78;36.08;94801.41;5050134;28;20044;-86
2023/07/03 10:29:11;;;;;;;8.43;6.20;;;;;;;29.87;36.62;94803.63;5051320;28;20084;-86
2023/07/03 10:31:50;;;;;;;8.35;5.63;;;;;;;29.97;36.40;94803.81;5070857;28;20021;-86
2023/07/03 10:34:23;;;;;;;7.80;5.35;;;;;;;30.14;34.96;94798.31;5050473;28;20024;-86
2023/07/03 10:36:56;;;;;;;8.05;5.78;;;;;;;30.08;35.43;94799.81;5050727;28;20497;-86
2023/07/03 10:39:30;;;;;;;7.13;5.85;;;;;;;30.18;35.76;94800.78;5033287;28;20035;-85
2023/07/03 10:42:00;;;;;;;6.57;5.97;;;;;;;30.25;35.12;94799.25;5050590;28;20021;-88
2023/07/03 10:44:29;;;;;;;11.30;9.45;;;;;;;30.28;34.65;94806.59;5051280;28;20040;-86
2023/07/03 10:47:19;;;;;;;6.60;5.90;;;;;;;30.36;35.49;94790.31;5052399;28;20345;-87
2023/07/03 10:49:45;;;;;;;7.45;5.22;;;;;;;30.47;35.43;94792.75;5051629;28;20029;-87
2023/07/03 10:52:29;;;;;;;7.47;5.40;;;;;;;30.35;35.27;94789.56;5051997;28;20127;-86
2023/07/03 10:55:13;;;;;;;8.52;6.45;;;;;;;30.31;35.95;94794.13;5050569;28;20063;-87
2023/07/03 10:58:09;;;;;;;12.88;8.93;;;;;;;30.26;35.90;94789.41;5049513;28;20043;-86
2023/07/03 11:00:58;;;;;;;17.58;10.93;;;;;;;30.09;36.70;94792.84;5046155;28;20051;-85
2023/07/03 11:03:41;;;;;;;8.93;6.82;;;;;;;29.93;37.14;94794.19;5048592;28;20064;-85
2023/07/03 11:06:37;;;;;;;7.90;5.80;;;;;;;29.75;37.15;94799.69;5046508;28;20211;-87
2023/07/03 11:09:21;;;;;;;7.97;5.38;;;;;;;29.57;37.72;94795.94;5044693;28;20067;-87
2023/07/03 11:11:59;;;;;;;6.25;5.18;;;;;;;29.51;37.02;94795.34;5048295;28;20072;-87
2023/07/03 11:14:30;;;;;;;8.65;5.10;;;;;;;29.51;37.10;94794.59;5047967;28;20503;-87
2023/07/03 11:17:02;;;;;;;5.45;4.82;;;;;;;29.63;37.21;94793.66;5048580;28;20023;-87
2023/07/03 11:19:34;;;;;;;5.90;5.30;;;;;;;29.79;36.53;94797.25;5047587;28;20021;-86
2023/07/03 11:22:08;;;;;;;5.68;4.82;;;;;;;29.96;35.93;94793.06;5048013;28;20532;-86